sensor_id;sensor_type;location;lat;lon;timestamp;P1;durP1;ratioP1;P2;durP2;ratioP2
55589;SDS011;41452;42.780;23.116;2022-10-28T00:01:10;5.00;;;2.50;;
55589;SDS011;41452;42.780;23.116;2022-10-28T00:03:38;6.47;;;2.42;;
55589;SDS011;41452;42.780;23.116;2022-10-28T00:06:06;5.03;;;2.50;;
55589;SDS011;41452;42.780;23.116;2022-10-28T00:08:37;8.13;;;2.65;;
55589;SDS011;41452;42.780;23.116;2022-10-28T00:13:59;6.60;;;2.42;;
55589;SDS011;41452;42.780;23.116;2022-10-28T00:16:29;6.32;;;1.98;;
55589;SDS011;41452;42.780;23.116;2022-10-28T00:18:57;5.93;;;2.25;;
55589;SDS011;41452;42.780;23.116;2022-10-28T00:21:24;5.13;;;2.25;;
55589;SDS011;41452;42.780;23.116;2022-10-28T00:23:52;4.43;;;2.25;;
55589;SDS011;41452;42.780;23.116;2022-10-28T00:26:19;5.60;;;2.50;;
55589;SDS011;41452;42.780;23.116;2022-10-28T00:28:50;4.75;;;2.42;;
55589;SDS011;41452;42.780;23.116;2022-10-28T00:31:24;4.75;;;3.17;;
55589;SDS011;41452;42.780;23.116;2022-10-28T00:33:51;4.63;;;2.17;;
55589;SDS011;41452;42.780;23.116;2022-10-28T00:38:45;8.35;;;2.25;;
55589;SDS011;41452;42.780;23.116;2022-10-28T00:41:14;5.80;;;2.50;;
55589;SDS011;41452;42.780;23.116;2022-10-28T00:43:49;3.42;;;2.03;;
55589;SDS011;41452;42.780;23.116;2022-10-28T00:46:44;3.90;;;2.08;;
55589;SDS011;41452;42.780;23.116;2022-10-28T00:49:29;5.72;;;2.15;;
55589;SDS011;41452;42.780;23.116;2022-10-28T00:54:30;3.55;;;1.77;;
55589;SDS011;41452;42.780;23.116;2022-10-28T00:56:56;4.80;;;2.10;;
55589;SDS011;41452;42.780;23.116;2022-10-28T00:59:27;4.97;;;2.05;;
55589;SDS011;41452;42.780;23.116;2022-10-28T01:01:55;7.50;;;2.80;;
55589;SDS011;41452;42.780;23.116;2022-10-28T01:04:21;6.38;;;2.17;;
55589;SDS011;41452;42.780;23.116;2022-10-28T01:06:47;3.63;;;1.90;;
55589;SDS011;41452;42.780;23.116;2022-10-28T01:09:13;5.47;;;2.03;;
55589;SDS011;41452;42.780;23.116;2022-10-28T01:11:42;6.13;;;2.15;;
55589;SDS011;41452;42.780;23.116;2022-10-28T01:14:41;5.07;;;2.08;;
55589;SDS011;41452;42.780;23.116;2022-10-28T01:17:14;6.53;;;2.72;;
55589;SDS011;41452;42.780;23.116;2022-10-28T01:30:22;6.57;;;2.08;;
55589;SDS011;41452;42.780;23.116;2022-10-28T01:35:50;4.65;;;2.15;;
55589;SDS011;41452;42.780;23.116;2022-10-28T01:43:53;8.45;;;2.30;;
55589;SDS011;41452;42.780;23.116;2022-10-28T01:46:29;5.97;;;1.85;;
55589;SDS011;41452;42.780;23.116;2022-10-28T01:49:01;5.57;;;2.30;;
55589;SDS011;41452;42.780;23.116;2022-10-28T01:51:37;3.30;;;1.90;;
55589;SDS011;41452;42.780;23.116;2022-10-28T01:54:18;6.35;;;2.42;;
55589;SDS011;41452;42.780;23.116;2022-10-28T01:56:46;4.55;;;2.20;;
55589;SDS011;41452;42.780;23.116;2022-10-28T01:59:16;4.70;;;2.08;;
55589;SDS011;41452;42.780;23.116;2022-10-28T02:01:45;4.90;;;2.65;;
55589;SDS011;41452;42.780;23.116;2022-10-28T02:04:11;3.80;;;2.10;;
55589;SDS011;41452;42.780;23.116;2022-10-28T02:06:36;7.28;;;2.33;;
55589;SDS011;41452;42.780;23.116;2022-10-28T02:11:58;6.38;;;2.70;;
55589;SDS011;41452;42.780;23.116;2022-10-28T02:31:44;7.25;;;2.63;;
55589;SDS011;41452;42.780;23.116;2022-10-28T02:34:16;7.18;;;2.75;;
55589;SDS011;41452;42.780;23.116;2022-10-28T02:36:47;5.18;;;2.25;;
55589;SDS011;41452;42.780;23.116;2022-10-28T02:39:15;6.43;;;2.28;;
55589;SDS011;41452;42.780;23.116;2022-10-28T02:41:47;4.97;;;2.33;;
55589;SDS011;41452;42.780;23.116;2022-10-28T02:44:17;7.10;;;2.20;;
55589;SDS011;41452;42.780;23.116;2022-10-28T02:46:48;3.58;;;2.30;;
55589;SDS011;41452;42.780;23.116;2022-10-28T02:49:16;5.05;;;2.40;;
55589;SDS011;41452;42.780;23.116;2022-10-28T02:51:45;4.80;;;2.60;;
55589;SDS011;41452;42.780;23.116;2022-10-28T02:54:17;3.78;;;2.20;;
55589;SDS011;41452;42.780;23.116;2022-10-28T02:56:56;6.90;;;2.28;;
55589;SDS011;41452;42.780;23.116;2022-10-28T02:59:25;5.22;;;2.05;;
55589;SDS011;41452;42.780;23.116;2022-10-28T03:01:52;4.60;;;2.00;;
55589;SDS011;41452;42.780;23.116;2022-10-28T03:04:17;6.40;;;2.20;;
55589;SDS011;41452;42.780;23.116;2022-10-28T03:06:43;3.95;;;2.22;;
55589;SDS011;41452;42.780;23.116;2022-10-28T03:09:08;16.10;;;2.85;;
55589;SDS011;41452;42.780;23.116;2022-10-28T03:11:34;6.47;;;2.35;;
55589;SDS011;41452;42.780;23.116;2022-10-28T03:13:59;9.00;;;2.83;;
55589;SDS011;41452;42.780;23.116;2022-10-28T03:16:24;5.28;;;2.20;;
55589;SDS011;41452;42.780;23.116;2022-10-28T03:18:50;4.10;;;2.25;;
55589;SDS011;41452;42.780;23.116;2022-10-28T03:21:17;4.85;;;2.33;;
55589;SDS011;41452;42.780;23.116;2022-10-28T03:23:42;4.75;;;2.42;;
55589;SDS011;41452;42.780;23.116;2022-10-28T03:26:07;6.00;;;2.92;;
55589;SDS011;41452;42.780;23.116;2022-10-28T03:28:33;5.32;;;2.45;;
55589;SDS011;41452;42.780;23.116;2022-10-28T03:30:58;4.70;;;2.60;;
55589;SDS011;41452;42.780;23.116;2022-10-28T03:33:23;8.77;;;2.40;;
55589;SDS011;41452;42.780;23.116;2022-10-28T03:35:49;6.82;;;2.03;;
55589;SDS011;41452;42.780;23.116;2022-10-28T03:38:14;3.42;;;1.98;;
55589;SDS011;41452;42.780;23.116;2022-10-28T03:40:40;4.32;;;2.08;;
55589;SDS011;41452;42.780;23.116;2022-10-28T03:43:05;4.78;;;2.20;;
55589;SDS011;41452;42.780;23.116;2022-10-28T03:45:30;4.65;;;2.28;;
55589;SDS011;41452;42.780;23.116;2022-10-28T03:47:56;5.38;;;2.20;;
55589;SDS011;41452;42.780;23.116;2022-10-28T03:50:21;4.47;;;2.22;;
55589;SDS011;41452;42.780;23.116;2022-10-28T03:52:46;4.82;;;2.55;;
55589;SDS011;41452;42.780;23.116;2022-10-28T03:55:12;5.05;;;2.08;;
55589;SDS011;41452;42.780;23.116;2022-10-28T03:57:37;4.88;;;2.35;;
55589;SDS011;41452;42.780;23.116;2022-10-28T04:00:03;3.72;;;2.10;;
55589;SDS011;41452;42.780;23.116;2022-10-28T04:02:29;4.90;;;2.63;;
55589;SDS011;41452;42.780;23.116;2022-10-28T04:04:55;3.15;;;1.95;;
55589;SDS011;41452;42.780;23.116;2022-10-28T04:07:20;5.50;;;2.70;;
55589;SDS011;41452;42.780;23.116;2022-10-28T04:09:46;4.32;;;2.47;;
55589;SDS011;41452;42.780;23.116;2022-10-28T04:12:15;7.63;;;2.75;;
55589;SDS011;41452;42.780;23.116;2022-10-28T04:14:41;12.25;;;2.53;;
55589;SDS011;41452;42.780;23.116;2022-10-28T04:17:07;8.13;;;2.55;;
55589;SDS011;41452;42.780;23.116;2022-10-28T04:19:32;3.95;;;2.33;;
55589;SDS011;41452;42.780;23.116;2022-10-28T04:21:57;5.82;;;2.47;;
55589;SDS011;41452;42.780;23.116;2022-10-28T04:24:23;6.15;;;2.63;;
55589;SDS011;41452;42.780;23.116;2022-10-28T04:26:48;3.30;;;2.08;;
55589;SDS011;41452;42.780;23.116;2022-10-28T04:29:13;4.22;;;2.33;;
55589;SDS011;41452;42.780;23.116;2022-10-28T04:31:39;5.80;;;2.58;;
55589;SDS011;41452;42.780;23.116;2022-10-28T04:34:04;8.93;;;2.33;;
55589;SDS011;41452;42.780;23.116;2022-10-28T04:36:29;6.28;;;2.22;;
55589;SDS011;41452;42.780;23.116;2022-10-28T04:38:55;6.43;;;2.55;;
55589;SDS011;41452;42.780;23.116;2022-10-28T04:41:20;3.67;;;2.08;;
55589;SDS011;41452;42.780;23.116;2022-10-28T04:43:45;6.45;;;2.60;;
55589;SDS011;41452;42.780;23.116;2022-10-28T04:46:11;4.38;;;2.22;;
55589;SDS011;41452;42.780;23.116;2022-10-28T04:48:36;5.03;;;2.45;;
55589;SDS011;41452;42.780;23.116;2022-10-28T04:51:02;7.93;;;2.00;;
55589;SDS011;41452;42.780;23.116;2022-10-28T04:53:27;7.13;;;3.25;;
55589;SDS011;41452;42.780;23.116;2022-10-28T04:55:56;4.15;;;2.60;;
55589;SDS011;41452;42.780;23.116;2022-10-28T04:58:23;6.07;;;2.80;;
55589;SDS011;41452;42.780;23.116;2022-10-28T05:00:49;5.13;;;2.67;;
55589;SDS011;41452;42.780;23.116;2022-10-28T05:03:14;5.18;;;2.45;;
55589;SDS011;41452;42.780;23.116;2022-10-28T05:05:40;6.50;;;2.40;;
55589;SDS011;41452;42.780;23.116;2022-10-28T05:08:05;5.25;;;2.40;;
55589;SDS011;41452;42.780;23.116;2022-10-28T05:10:31;4.93;;;2.67;;
55589;SDS011;41452;42.780;23.116;2022-10-28T05:12:56;4.97;;;2.30;;
55589;SDS011;41452;42.780;23.116;2022-10-28T05:15:22;4.95;;;2.20;;
55589;SDS011;41452;42.780;23.116;2022-10-28T05:17:47;4.15;;;2.28;;
55589;SDS011;41452;42.780;23.116;2022-10-28T05:20:14;12.35;;;2.67;;
55589;SDS011;41452;42.780;23.116;2022-10-28T05:22:44;7.35;;;2.50;;
55589;SDS011;41452;42.780;23.116;2022-10-28T05:25:14;5.75;;;2.33;;
55589;SDS011;41452;42.780;23.116;2022-10-28T05:27:40;5.28;;;2.50;;
55589;SDS011;41452;42.780;23.116;2022-10-28T05:30:06;6.07;;;2.60;;
55589;SDS011;41452;42.780;23.116;2022-10-28T05:32:32;5.75;;;2.67;;
55589;SDS011;41452;42.780;23.116;2022-10-28T05:34:57;5.50;;;2.08;;
55589;SDS011;41452;42.780;23.116;2022-10-28T05:37:23;7.07;;;2.20;;
55589;SDS011;41452;42.780;23.116;2022-10-28T05:39:48;4.72;;;2.47;;
55589;SDS011;41452;42.780;23.116;2022-10-28T05:42:13;4.72;;;2.22;;
55589;SDS011;41452;42.780;23.116;2022-10-28T05:44:39;4.55;;;2.65;;
55589;SDS011;41452;42.780;23.116;2022-10-28T05:47:04;8.57;;;3.00;;
55589;SDS011;41452;42.780;23.116;2022-10-28T05:49:29;6.93;;;2.47;;
55589;SDS011;41452;42.780;23.116;2022-10-28T05:51:55;12.02;;;2.67;;
55589;SDS011;41452;42.780;23.116;2022-10-28T05:54:20;9.65;;;2.40;;
55589;SDS011;41452;42.780;23.116;2022-10-28T05:56:46;5.63;;;2.65;;
55589;SDS011;41452;42.780;23.116;2022-10-28T05:59:11;9.40;;;2.50;;
55589;SDS011;41452;42.780;23.116;2022-10-28T06:01:37;13.32;;;3.35;;
55589;SDS011;41452;42.780;23.116;2022-10-28T06:04:03;17.55;;;3.60;;
55589;SDS011;41452;42.780;23.116;2022-10-28T06:06:28;6.20;;;3.40;;
55589;SDS011;41452;42.780;23.116;2022-10-28T06:08:54;6.32;;;2.95;;
55589;SDS011;41452;42.780;23.116;2022-10-28T06:11:20;5.40;;;2.85;;
55589;SDS011;41452;42.780;23.116;2022-10-28T06:13:45;6.05;;;3.00;;
55589;SDS011;41452;42.780;23.116;2022-10-28T06:16:10;5.30;;;3.25;;
55589;SDS011;41452;42.780;23.116;2022-10-28T06:18:36;4.95;;;2.67;;
55589;SDS011;41452;42.780;23.116;2022-10-28T06:21:01;5.55;;;3.15;;
55589;SDS011;41452;42.780;23.116;2022-10-28T06:23:26;7.50;;;3.38;;
55589;SDS011;41452;42.780;23.116;2022-10-28T06:25:56;7.50;;;2.85;;
55589;SDS011;41452;42.780;23.116;2022-10-28T06:28:23;6.63;;;3.58;;
55589;SDS011;41452;42.780;23.116;2022-10-28T06:30:48;7.68;;;3.95;;
55589;SDS011;41452;42.780;23.116;2022-10-28T06:33:14;7.15;;;4.25;;
55589;SDS011;41452;42.780;23.116;2022-10-28T06:35:39;10.75;;;4.00;;
55589;SDS011;41452;42.780;23.116;2022-10-28T06:38:04;10.98;;;4.50;;
55589;SDS011;41452;42.780;23.116;2022-10-28T06:40:31;10.30;;;4.78;;
55589;SDS011;41452;42.780;23.116;2022-10-28T06:43:00;10.48;;;5.22;;
55589;SDS011;41452;42.780;23.116;2022-10-28T06:45:27;11.93;;;5.28;;
55589;SDS011;41452;42.780;23.116;2022-10-28T06:47:54;15.07;;;5.65;;
55589;SDS011;41452;42.780;23.116;2022-10-28T06:50:24;9.02;;;4.47;;
55589;SDS011;41452;42.780;23.116;2022-10-28T06:52:50;11.88;;;5.72;;
55589;SDS011;41452;42.780;23.116;2022-10-28T06:55:16;10.00;;;5.20;;
55589;SDS011;41452;42.780;23.116;2022-10-28T06:57:42;10.35;;;4.70;;
55589;SDS011;41452;42.780;23.116;2022-10-28T07:00:07;12.80;;;5.18;;
55589;SDS011;41452;42.780;23.116;2022-10-28T07:02:33;8.20;;;4.82;;
55589;SDS011;41452;42.780;23.116;2022-10-28T07:04:58;15.38;;;5.25;;
55589;SDS011;41452;42.780;23.116;2022-10-28T07:07:24;10.15;;;5.18;;
55589;SDS011;41452;42.780;23.116;2022-10-28T07:09:49;7.78;;;4.40;;
55589;SDS011;41452;42.780;23.116;2022-10-28T07:12:14;10.35;;;5.07;;
55589;SDS011;41452;42.780;23.116;2022-10-28T07:14:40;8.98;;;4.65;;
55589;SDS011;41452;42.780;23.116;2022-10-28T07:17:05;10.27;;;5.00;;
55589;SDS011;41452;42.780;23.116;2022-10-28T07:19:31;10.48;;;5.65;;
55589;SDS011;41452;42.780;23.116;2022-10-28T07:21:56;15.18;;;6.03;;
55589;SDS011;41452;42.780;23.116;2022-10-28T07:24:21;12.10;;;5.65;;
55589;SDS011;41452;42.780;23.116;2022-10-28T07:26:47;12.65;;;6.38;;
55589;SDS011;41452;42.780;23.116;2022-10-28T07:29:15;14.52;;;5.88;;
55589;SDS011;41452;42.780;23.116;2022-10-28T07:31:41;14.20;;;5.88;;
55589;SDS011;41452;42.780;23.116;2022-10-28T07:34:06;12.88;;;5.70;;
55589;SDS011;41452;42.780;23.116;2022-10-28T07:36:32;15.25;;;4.88;;
55589;SDS011;41452;42.780;23.116;2022-10-28T07:38:57;13.45;;;6.13;;
55589;SDS011;41452;42.780;23.116;2022-10-28T07:41:23;11.43;;;5.13;;
55589;SDS011;41452;42.780;23.116;2022-10-28T07:43:49;9.43;;;4.90;;
55589;SDS011;41452;42.780;23.116;2022-10-28T07:46:14;19.05;;;5.75;;
55589;SDS011;41452;42.780;23.116;2022-10-28T07:48:41;10.15;;;4.72;;
55589;SDS011;41452;42.780;23.116;2022-10-28T07:51:07;14.43;;;4.75;;
55589;SDS011;41452;42.780;23.116;2022-10-28T07:53:34;9.88;;;4.93;;
55589;SDS011;41452;42.780;23.116;2022-10-28T07:56:00;9.75;;;4.15;;
55589;SDS011;41452;42.780;23.116;2022-10-28T07:58:28;10.32;;;4.15;;
55589;SDS011;41452;42.780;23.116;2022-10-28T08:00:54;16.25;;;5.05;;
55589;SDS011;41452;42.780;23.116;2022-10-28T08:03:19;14.27;;;4.22;;
55589;SDS011;41452;42.780;23.116;2022-10-28T08:05:45;12.05;;;3.72;;
55589;SDS011;41452;42.780;23.116;2022-10-28T08:08:10;8.32;;;3.88;;
55589;SDS011;41452;42.780;23.116;2022-10-28T08:10:36;7.72;;;3.60;;
55589;SDS011;41452;42.780;23.116;2022-10-28T08:13:01;6.20;;;3.58;;
55589;SDS011;41452;42.780;23.116;2022-10-28T08:15:27;7.07;;;3.88;;
55589;SDS011;41452;42.780;23.116;2022-10-28T08:17:54;9.13;;;4.15;;
55589;SDS011;41452;42.780;23.116;2022-10-28T08:20:20;9.07;;;3.50;;
55589;SDS011;41452;42.780;23.116;2022-10-28T08:22:45;9.80;;;3.67;;
55589;SDS011;41452;42.780;23.116;2022-10-28T08:25:11;8.32;;;4.32;;
55589;SDS011;41452;42.780;23.116;2022-10-28T08:27:36;16.02;;;4.38;;
55589;SDS011;41452;42.780;23.116;2022-10-28T08:30:03;6.47;;;3.58;;
55589;SDS011;41452;42.780;23.116;2022-10-28T08:32:28;6.93;;;3.67;;
55589;SDS011;41452;42.780;23.116;2022-10-28T08:34:54;11.05;;;3.67;;
55589;SDS011;41452;42.780;23.116;2022-10-28T08:37:19;9.02;;;4.28;;
55589;SDS011;41452;42.780;23.116;2022-10-28T08:39:44;8.02;;;3.60;;
55589;SDS011;41452;42.780;23.116;2022-10-28T08:48:20;13.00;;;3.45;;
55589;SDS011;41452;42.780;23.116;2022-10-28T08:53:47;8.23;;;3.58;;
55589;SDS011;41452;42.780;23.116;2022-10-28T09:04:42;4.85;;;2.85;;
55589;SDS011;41452;42.780;23.116;2022-10-28T09:07:14;7.22;;;3.17;;
55589;SDS011;41452;42.780;23.116;2022-10-28T09:09:42;6.80;;;3.35;;
55589;SDS011;41452;42.780;23.116;2022-10-28T09:17:49;9.07;;;3.72;;
55589;SDS011;41452;42.780;23.116;2022-10-28T09:35:59;7.93;;;3.83;;
55589;SDS011;41452;42.780;23.116;2022-10-28T09:38:31;8.05;;;3.17;;
55589;SDS011;41452;42.780;23.116;2022-10-28T09:43:36;6.00;;;2.80;;
55589;SDS011;41452;42.780;23.116;2022-10-28T09:46:09;12.50;;;3.90;;
55589;SDS011;41452;42.780;23.116;2022-10-28T09:48:37;9.60;;;3.20;;
55589;SDS011;41452;42.780;23.116;2022-10-28T09:51:05;6.35;;;2.75;;
55589;SDS011;41452;42.780;23.116;2022-10-28T09:56:08;6.38;;;3.33;;
55589;SDS011;41452;42.780;23.116;2022-10-28T09:58:35;9.98;;;3.17;;
55589;SDS011;41452;42.780;23.116;2022-10-28T10:01:02;7.28;;;3.30;;
55589;SDS011;41452;42.780;23.116;2022-10-28T10:03:29;6.80;;;2.70;;
55589;SDS011;41452;42.780;23.116;2022-10-28T10:05:55;10.45;;;3.10;;
55589;SDS011;41452;42.780;23.116;2022-10-28T10:08:24;12.18;;;3.33;;
55589;SDS011;41452;42.780;23.116;2022-10-28T10:11:01;7.05;;;2.75;;
55589;SDS011;41452;42.780;23.116;2022-10-28T10:13:35;23.05;;;2.97;;
55589;SDS011;41452;42.780;23.116;2022-10-28T10:18:46;9.55;;;3.65;;
55589;SDS011;41452;42.780;23.116;2022-10-28T10:21:15;7.07;;;3.35;;
55589;SDS011;41452;42.780;23.116;2022-10-28T10:23:44;6.72;;;3.22;;
55589;SDS011;41452;42.780;23.116;2022-10-28T10:26:13;7.80;;;2.50;;
55589;SDS011;41452;42.780;23.116;2022-10-28T10:28:47;7.10;;;2.20;;
55589;SDS011;41452;42.780;23.116;2022-10-28T10:31:18;15.38;;;2.47;;
55589;SDS011;41452;42.780;23.116;2022-10-28T10:33:48;5.38;;;2.53;;
55589;SDS011;41452;42.780;23.116;2022-10-28T10:36:16;5.25;;;2.75;;
55589;SDS011;41452;42.780;23.116;2022-10-28T10:38:49;6.55;;;2.33;;
55589;SDS011;41452;42.780;23.116;2022-10-28T10:46:45;5.70;;;2.10;;
55589;SDS011;41452;42.780;23.116;2022-10-28T10:49:12;6.47;;;1.88;;
55589;SDS011;41452;42.780;23.116;2022-10-28T10:51:52;13.55;;;2.33;;
55589;SDS011;41452;42.780;23.116;2022-10-28T10:54:21;7.68;;;2.63;;
55589;SDS011;41452;42.780;23.116;2022-10-28T10:56:47;17.25;;;3.28;;
55589;SDS011;41452;42.780;23.116;2022-10-28T10:59:31;6.72;;;2.40;;
55589;SDS011;41452;42.780;23.116;2022-10-28T11:01:58;3.70;;;2.30;;
55589;SDS011;41452;42.780;23.116;2022-10-28T11:04:25;8.65;;;2.10;;
55589;SDS011;41452;42.780;23.116;2022-10-28T11:06:55;8.20;;;2.45;;
55589;SDS011;41452;42.780;23.116;2022-10-28T11:09:34;14.02;;;2.83;;
55589;SDS011;41452;42.780;23.116;2022-10-28T11:14:58;6.32;;;2.78;;
55589;SDS011;41452;42.780;23.116;2022-10-28T11:17:29;4.80;;;2.30;;
55589;SDS011;41452;42.780;23.116;2022-10-28T11:19:59;12.07;;;2.33;;
55589;SDS011;41452;42.780;23.116;2022-10-28T11:22:50;3.65;;;2.20;;
55589;SDS011;41452;42.780;23.116;2022-10-28T11:25:33;8.85;;;2.20;;
55589;SDS011;41452;42.780;23.116;2022-10-28T11:28:07;5.65;;;2.03;;
55589;SDS011;41452;42.780;23.116;2022-10-28T11:33:36;8.20;;;1.95;;
55589;SDS011;41452;42.780;23.116;2022-10-28T11:36:17;4.97;;;2.15;;
55589;SDS011;41452;42.780;23.116;2022-10-28T11:39:02;5.35;;;1.60;;
55589;SDS011;41452;42.780;23.116;2022-10-28T12:00:35;6.65;;;2.22;;
55589;SDS011;41452;42.780;23.116;2022-10-28T12:13:36;4.55;;;1.83;;
55589;SDS011;41452;42.780;23.116;2022-10-28T12:23:36;4.32;;;2.72;;
55589;SDS011;41452;42.780;23.116;2022-10-28T12:26:03;8.25;;;2.80;;
55589;SDS011;41452;42.780;23.116;2022-10-28T12:28:32;4.88;;;2.00;;
55589;SDS011;41452;42.780;23.116;2022-10-28T12:31:14;5.13;;;2.20;;
55589;SDS011;41452;42.780;23.116;2022-10-28T12:34:03;6.32;;;1.98;;
55589;SDS011;41452;42.780;23.116;2022-10-28T12:36:40;8.15;;;2.15;;
55589;SDS011;41452;42.780;23.116;2022-10-28T12:39:21;21.83;;;3.03;;
55589;SDS011;41452;42.780;23.116;2022-10-28T12:41:54;5.60;;;1.58;;
55589;SDS011;41452;42.780;23.116;2022-10-28T12:44:39;7.60;;;2.40;;
55589;SDS011;41452;42.780;23.116;2022-10-28T12:57:35;13.80;;;2.88;;
55589;SDS011;41452;42.780;23.116;2022-10-28T13:00:46;6.65;;;2.10;;
55589;SDS011;41452;42.780;23.116;2022-10-28T13:03:05;5.05;;;1.73;;
55589;SDS011;41452;42.780;23.116;2022-10-28T13:05:52;15.63;;;2.83;;
55589;SDS011;41452;42.780;23.116;2022-10-28T13:19:39;4.47;;;2.00;;
55589;SDS011;41452;42.780;23.116;2022-10-28T13:22:19;4.10;;;1.70;;
55589;SDS011;41452;42.780;23.116;2022-10-28T13:24:51;7.97;;;2.15;;
55589;SDS011;41452;42.780;23.116;2022-10-28T13:27:37;5.72;;;2.10;;
55589;SDS011;41452;42.780;23.116;2022-10-28T13:30:03;7.43;;;2.08;;
55589;SDS011;41452;42.780;23.116;2022-10-28T13:32:34;3.50;;;1.70;;
55589;SDS011;41452;42.780;23.116;2022-10-28T13:35:08;3.95;;;1.85;;
55589;SDS011;41452;42.780;23.116;2022-10-28T13:37:35;3.83;;;1.83;;
55589;SDS011;41452;42.780;23.116;2022-10-28T13:40:03;12.00;;;2.33;;
55589;SDS011;41452;42.780;23.116;2022-10-28T13:42:30;4.15;;;1.83;;
55589;SDS011;41452;42.780;23.116;2022-10-28T13:53:56;9.40;;;2.20;;
55589;SDS011;41452;42.780;23.116;2022-10-28T13:59:01;7.53;;;1.80;;
55589;SDS011;41452;42.780;23.116;2022-10-28T14:02:00;6.45;;;2.53;;
55589;SDS011;41452;42.780;23.116;2022-10-28T14:04:29;11.63;;;3.67;;
55589;SDS011;41452;42.780;23.116;2022-10-28T14:07:02;6.30;;;2.63;;
55589;SDS011;41452;42.780;23.116;2022-10-28T14:09:30;8.98;;;2.78;;
55589;SDS011;41452;42.780;23.116;2022-10-28T14:12:20;7.78;;;2.83;;
55589;SDS011;41452;42.780;23.116;2022-10-28T14:14:51;7.43;;;2.53;;
55589;SDS011;41452;42.780;23.116;2022-10-28T14:17:22;10.32;;;2.80;;
55589;SDS011;41452;42.780;23.116;2022-10-28T14:19:53;3.28;;;2.00;;
55589;SDS011;41452;42.780;23.116;2022-10-28T14:22:25;5.85;;;2.30;;
55589;SDS011;41452;42.780;23.116;2022-10-28T14:24:53;8.80;;;2.60;;
55589;SDS011;41452;42.780;23.116;2022-10-28T14:27:19;13.57;;;4.00;;
55589;SDS011;41452;42.780;23.116;2022-10-28T14:34:57;4.60;;;2.40;;
55589;SDS011;41452;42.780;23.116;2022-10-28T14:37:54;4.60;;;2.10;;
55589;SDS011;41452;42.780;23.116;2022-10-28T14:40:31;6.40;;;1.83;;
55589;SDS011;41452;42.780;23.116;2022-10-28T14:45:40;4.22;;;2.08;;
55589;SDS011;41452;42.780;23.116;2022-10-28T14:50:55;6.72;;;2.20;;
55589;SDS011;41452;42.780;23.116;2022-10-28T14:53:23;3.75;;;1.90;;
55589;SDS011;41452;42.780;23.116;2022-10-28T14:56:03;4.00;;;2.28;;
55589;SDS011;41452;42.780;23.116;2022-10-28T14:58:38;5.03;;;1.88;;
55589;SDS011;41452;42.780;23.116;2022-10-28T15:03:40;4.55;;;2.00;;
55589;SDS011;41452;42.780;23.116;2022-10-28T15:09:02;3.72;;;1.80;;
55589;SDS011;41452;42.780;23.116;2022-10-28T15:11:31;2.97;;;1.58;;
55589;SDS011;41452;42.780;23.116;2022-10-28T15:13:59;9.15;;;1.65;;
55589;SDS011;41452;42.780;23.116;2022-10-28T15:16:46;31.10;;;2.78;;
55589;SDS011;41452;42.780;23.116;2022-10-28T15:19:13;8.23;;;2.30;;
55589;SDS011;41452;42.780;23.116;2022-10-28T15:21:42;6.15;;;2.28;;
55589;SDS011;41452;42.780;23.116;2022-10-28T15:24:11;8.25;;;3.15;;
55589;SDS011;41452;42.780;23.116;2022-10-28T15:26:37;12.00;;;5.38;;
55589;SDS011;41452;42.780;23.116;2022-10-28T15:29:03;28.52;;;11.20;;
55589;SDS011;41452;42.780;23.116;2022-10-28T15:31:28;34.22;;;12.90;;
55589;SDS011;41452;42.780;23.116;2022-10-28T15:33:54;30.85;;;10.43;;
55589;SDS011;41452;42.780;23.116;2022-10-28T15:36:20;32.70;;;11.55;;
55589;SDS011;41452;42.780;23.116;2022-10-28T15:38:48;24.80;;;9.10;;
55589;SDS011;41452;42.780;23.116;2022-10-28T15:43:55;20.30;;;6.90;;
55589;SDS011;41452;42.780;23.116;2022-10-28T15:46:23;20.88;;;7.93;;
55589;SDS011;41452;42.780;23.116;2022-10-28T15:48:51;23.73;;;9.73;;
55589;SDS011;41452;42.780;23.116;2022-10-28T15:51:17;30.25;;;9.90;;
55589;SDS011;41452;42.780;23.116;2022-10-28T15:53:44;29.02;;;8.68;;
55589;SDS011;41452;42.780;23.116;2022-10-28T15:58:39;21.88;;;5.32;;
55589;SDS011;41452;42.780;23.116;2022-10-28T16:01:07;11.75;;;4.90;;
55589;SDS011;41452;42.780;23.116;2022-10-28T16:08:45;11.35;;;3.45;;
55589;SDS011;41452;42.780;23.116;2022-10-28T16:11:15;11.38;;;4.22;;
55589;SDS011;41452;42.780;23.116;2022-10-28T16:13:46;10.43;;;5.03;;
55589;SDS011;41452;42.780;23.116;2022-10-28T16:16:14;14.35;;;4.85;;
55589;SDS011;41452;42.780;23.116;2022-10-28T16:18:49;9.02;;;4.20;;
55589;SDS011;41452;42.780;23.116;2022-10-28T16:21:20;11.27;;;4.45;;
55589;SDS011;41452;42.780;23.116;2022-10-28T16:23:49;12.45;;;4.68;;
55589;SDS011;41452;42.780;23.116;2022-10-28T16:26:20;12.77;;;4.30;;
55589;SDS011;41452;42.780;23.116;2022-10-28T16:28:46;11.45;;;4.75;;
55589;SDS011;41452;42.780;23.116;2022-10-28T16:31:13;11.85;;;5.05;;
55589;SDS011;41452;42.780;23.116;2022-10-28T16:33:40;17.60;;;4.60;;
55589;SDS011;41452;42.780;23.116;2022-10-28T16:36:06;13.10;;;4.60;;
55589;SDS011;41452;42.780;23.116;2022-10-28T16:38:32;15.63;;;5.20;;
55589;SDS011;41452;42.780;23.116;2022-10-28T16:40:57;17.98;;;5.63;;
55589;SDS011;41452;42.780;23.116;2022-10-28T16:43:24;16.42;;;6.20;;
55589;SDS011;41452;42.780;23.116;2022-10-28T16:45:51;19.67;;;6.07;;
55589;SDS011;41452;42.780;23.116;2022-10-28T16:48:19;16.02;;;6.72;;
55589;SDS011;41452;42.780;23.116;2022-10-28T16:50:55;23.27;;;6.82;;
55589;SDS011;41452;42.780;23.116;2022-10-28T16:53:23;19.38;;;8.23;;
55589;SDS011;41452;42.780;23.116;2022-10-28T16:55:48;25.05;;;10.85;;
55589;SDS011;41452;42.780;23.116;2022-10-28T16:58:14;34.92;;;10.70;;
55589;SDS011;41452;42.780;23.116;2022-10-28T17:00:40;30.35;;;9.52;;
55589;SDS011;41452;42.780;23.116;2022-10-28T17:03:08;24.52;;;8.93;;
55589;SDS011;41452;42.780;23.116;2022-10-28T17:05:36;21.58;;;7.55;;
55589;SDS011;41452;42.780;23.116;2022-10-28T17:08:02;16.70;;;5.80;;
55589;SDS011;41452;42.780;23.116;2022-10-28T17:10:27;16.17;;;5.82;;
55589;SDS011;41452;42.780;23.116;2022-10-28T17:12:53;19.20;;;5.30;;
55589;SDS011;41452;42.780;23.116;2022-10-28T17:15:18;14.00;;;4.13;;
55589;SDS011;41452;42.780;23.116;2022-10-28T17:17:47;11.38;;;4.03;;
55589;SDS011;41452;42.780;23.116;2022-10-28T17:20:13;12.18;;;4.40;;
55589;SDS011;41452;42.780;23.116;2022-10-28T17:22:39;12.30;;;4.75;;
55589;SDS011;41452;42.780;23.116;2022-10-28T17:25:05;15.68;;;5.72;;
55589;SDS011;41452;42.780;23.116;2022-10-28T17:27:31;15.65;;;5.45;;
55589;SDS011;41452;42.780;23.116;2022-10-28T17:29:56;15.30;;;5.38;;
55589;SDS011;41452;42.780;23.116;2022-10-28T17:32:22;11.65;;;4.88;;
55589;SDS011;41452;42.780;23.116;2022-10-28T17:34:47;11.38;;;5.07;;
55589;SDS011;41452;42.780;23.116;2022-10-28T17:37:13;11.57;;;5.32;;
55589;SDS011;41452;42.780;23.116;2022-10-28T17:39:38;14.05;;;5.95;;
55589;SDS011;41452;42.780;23.116;2022-10-28T17:42:03;14.43;;;5.13;;
55589;SDS011;41452;42.780;23.116;2022-10-28T17:44:29;18.42;;;5.50;;
55589;SDS011;41452;42.780;23.116;2022-10-28T17:46:54;14.23;;;5.72;;
55589;SDS011;41452;42.780;23.116;2022-10-28T17:49:19;13.65;;;5.75;;
55589;SDS011;41452;42.780;23.116;2022-10-28T17:51:45;26.70;;;8.30;;
55589;SDS011;41452;42.780;23.116;2022-10-28T17:54:10;19.17;;;8.15;;
55589;SDS011;41452;42.780;23.116;2022-10-28T17:56:36;18.25;;;6.78;;
55589;SDS011;41452;42.780;23.116;2022-10-28T17:59:02;23.65;;;7.47;;
55589;SDS011;41452;42.780;23.116;2022-10-28T18:01:28;22.25;;;6.43;;